Time;durP1;ratioP1;P1;durP2;ratioP2;P2;SDS_P1;SDS_P2;PMS_P1;PMS_P2;Temp;Humidity;BMP_temperature;BMP_pressure;BME280_temperature;BME280_humidity;BME280_pressure;Samples;Min_cycle;Max_cycle;Signal;HPM_P1;HPM_P2
2022/07/04 00:00:19;;;;;;;1.38;1.00;;;;;;;17.08;56.48;100644.56;5112688;28;20398;-61
2022/07/04 00:02:48;;;;;;;2.50;1.00;;;;;;;17.05;56.29;100640.47;5113627;28;20051;-61
2022/07/04 00:05:17;;;;;;;3.40;1.30;;;;;;;16.94;56.56;100642.91;5113176;28;20048;-61
2022/07/04 00:07:46;;;;;;;2.42;1.13;;;;;;;16.91;56.29;100640.81;5112985;27;20047;-61
2022/07/04 00:10:16;;;;;;;2.92;1.00;;;;;;;16.81;56.67;100639.31;5112918;28;20058;-61
2022/07/04 00:12:44;;;;;;;;;;;;;;;16.70;56.92;100640.94;5112484;28;20051;-61
2022/07/04 00:15:13;;;;;;;4.10;1.30;;;;;;;16.63;56.89;100635.91;5112981;28;20438;-61
2022/07/04 00:17:41;;;;;;;2.30;1.10;;;;;;;16.59;57.04;100639.75;5112709;28;20052;-61
2022/07/04 00:20:10;;;;;;;1.70;1.08;;;;;;;16.54;56.97;100646.41;5112894;28;20059;-60
2022/07/04 00:22:38;;;;;;;3.15;1.30;;;;;;;16.48;57.08;100645.00;5111251;28;20055;-61
2022/07/04 00:25:05;;;;;;;1.75;1.10;;;;;;;16.39;57.11;100649.94;5113210;28;20048;-61
2022/07/04 00:27:33;;;;;;;2.67;1.42;;;;;;;16.38;57.18;100642.69;5112781;28;20055;-61
2022/07/04 00:30:01;;;;;;;5.50;1.08;;;;;;;16.36;57.42;100636.59;5112641;27;20055;-60
2022/07/04 00:32:29;;;;;;;2.90;1.15;;;;;;;16.33;57.51;100637.28;5111339;28;20071;-61
2022/07/04 00:34:57;;;;;;;1.83;1.10;;;;;;;16.29;57.59;100633.50;5112323;28;20081;-61
2022/07/04 00:37:24;;;;;;;1.90;1.05;;;;;;;16.22;57.85;100634.91;5112679;28;20051;-61
2022/07/04 00:39:51;;;;;;;2.10;1.10;;;;;;;16.19;57.88;100641.25;5112578;28;20058;-61
2022/07/04 00:42:19;;;;;;;2.92;1.23;;;;;;;16.15;57.88;100642.28;5111259;28;20070;-61
2022/07/04 00:44:46;;;;;;;2.22;1.17;;;;;;;16.08;58.19;100640.03;5112519;28;20062;-60
2022/07/04 00:47:13;;;;;;;2.08;1.23;;;;;;;15.95;58.64;100638.38;5112494;28;20389;-61
2022/07/04 00:49:42;;;;;;;2.38;1.20;;;;;;;15.98;58.40;100629.22;5110465;28;20055;-61
2022/07/04 00:52:09;;;;;;;2.07;1.20;;;;;;;15.97;58.28;100630.41;5092387;28;20064;-61
2022/07/04 00:54:37;;;;;;;1.95;1.00;;;;;;;15.88;58.30;100629.69;5091877;28;20059;-61
2022/07/04 00:57:04;;;;;;;2.67;1.30;;;;;;;15.83;58.49;100631.56;5093190;28;20059;-61
2022/07/04 00:59:31;;;;;;;2.75;1.17;;;;;;;15.78;59.03;100623.31;5112191;28;20047;-61
2022/07/04 01:01:59;;;;;;;2.33;1.13;;;;;;;15.76;58.82;100628.47;5108120;28;20066;-61
2022/07/04 01:04:26;;;;;;;2.50;1.10;;;;;;;15.74;58.70;100628.00;5108913;28;20058;-61
2022/07/04 01:06:55;;;;;;;2.00;1.20;;;;;;;15.70;58.63;100635.44;5112038;28;20051;-61
2022/07/04 01:09:22;;;;;;;2.15;1.33;;;;;;;15.66;59.35;100642.09;5112053;28;20063;-61
2022/07/04 01:11:50;;;;;;;2.97;1.40;;;;;;;15.62;59.33;100645.59;5111046;28;20051;-61
2022/07/04 01:14:17;;;;;;;3.55;1.23;;;;;;;15.58;59.35;100636.22;5112290;28;20071;-61
2022/07/04 01:16:45;;;;;;;2.60;1.20;;;;;;;15.55;59.71;100636.91;5102218;28;20048;-61
2022/07/04 01:19:12;;;;;;;1.90;0.95;;;;;;;15.54;59.88;100640.03;5091506;28;20052;-61
2022/07/04 01:21:41;;;;;;;2.70;1.10;;;;;;;15.53;59.70;100632.81;5100082;28;20376;-61
2022/07/04 01:24:11;;;;;;;3.17;1.30;;;;;;;15.48;59.87;100633.84;5111955;28;20059;-61
2022/07/04 01:26:38;;;;;;;2.33;1.10;;;;;;;15.45;59.55;100628.09;5111488;28;20052;-61
2022/07/04 01:29:05;;;;;;;1.90;1.20;;;;;;;15.45;59.33;100625.28;5111774;28;20059;-61
2022/07/04 01:31:33;;;;;;;3.03;1.27;;;;;;;15.40;59.88;100621.50;5105604;28;20044;-61
2022/07/04 01:34:00;;;;;;;4.43;1.50;;;;;;;15.41;59.49;100625.97;5091210;28;20067;-61
2022/07/04 01:36:27;;;;;;;2.85;1.60;;;;;;;15.37;59.69;100629.78;5091203;28;20052;-61
2022/07/04 01:38:58;;;;;;;2.10;1.20;;;;;;;15.33;59.97;100621.25;5091119;28;20083;-60
2022/07/04 01:41:26;;;;;;;2.10;1.10;;;;;;;15.31;59.74;100620.78;5093111;28;20052;-61
2022/07/04 01:43:53;;;;;;;1.40;1.00;;;;;;;15.24;60.10;100614.88;5111608;28;20056;-61
2022/07/04 01:46:20;;;;;;;3.65;1.40;;;;;;;15.17;60.14;100614.63;5111896;28;20071;-61
2022/07/04 01:48:47;;;;;;;3.20;1.38;;;;;;;15.16;60.48;100624.19;5111399;28;20052;-61
2022/07/04 01:51:15;;;;;;;2.45;1.30;;;;;;;15.11;60.36;100624.41;5109887;28;20055;-61
2022/07/04 01:53:42;;;;;;;4.18;1.40;;;;;;;15.08;60.53;100627.91;5111533;28;20356;-61
2022/07/04 01:56:11;;;;;;;2.63;1.30;;;;;;;15.01;61.15;100625.59;5111701;28;20054;-61
2022/07/04 01:58:38;;;;;;;1.85;1.20;;;;;;;14.99;61.26;100625.97;5104006;28;20055;-61
2022/07/04 02:03:50;;;;;;;2.63;1.30;;;;;;;14.94;61.61;100637.38;5117647;28;20058;-61
2022/07/04 02:06:17;;;;;;;3.38;1.38;;;;;;;14.92;61.46;100636.09;5111710;28;20044;-61
2022/07/04 02:13:00;;;;;;;1.90;1.20;;;;;;;14.87;61.67;100647.50;5117959;28;20055;-61
2022/07/04 02:14:17;;;;;;;2.42;1.30;;;;;;;14.81;61.72;100644.06;5111520;28;20483;-60
2022/07/04 02:16:44;;;;;;;2.42;1.10;;;;;;;14.80;62.06;100636.78;5111192;28;20468;-61
2022/07/04 02:19:12;;;;;;;2.80;1.30;;;;;;;14.78;61.57;100636.31;5113266;27;20055;-61
2022/07/04 02:21:39;;;;;;;1.50;1.10;;;;;;;14.75;62.53;100648.22;5114815;28;20062;-61
2022/07/04 02:24:07;;;;;;;2.55;1.20;;;;;;;14.73;62.60;100650.53;5114901;28;20055;-61
2022/07/04 02:26:35;;;;;;;2.20;1.25;;;;;;;14.72;62.71;100648.88;5115546;28;20052;-61
2022/07/04 02:29:03;;;;;;;2.22;1.25;;;;;;;14.76;62.49;100649.84;5111068;27;20392;-61
2022/07/04 02:31:30;;;;;;;2.00;1.30;;;;;;;14.77;62.37;100649.53;5115065;28;20058;-61
2022/07/04 02:33:57;;;;;;;2.03;1.25;;;;;;;14.79;62.54;100650.00;5114890;28;20051;-61
2022/07/04 02:36:25;;;;;;;3.42;1.30;;;;;;;14.72;62.48;100652.53;5115157;27;20427;-61
2022/07/04 02:38:52;;;;;;;2.78;1.30;;;;;;;14.73;62.66;100653.34;5114592;28;20047;-61
2022/07/04 02:41:19;;;;;;;2.25;1.30;;;;;;;14.73;62.92;100654.16;5115343;28;20256;-64
2022/07/04 02:43:48;;;;;;;2.33;1.35;;;;;;;14.68;63.04;100659.13;5114643;28;20060;-64
2022/07/04 02:46:15;;;;;;;2.25;1.13;;;;;;;14.64;62.82;100666.59;5114620;28;20051;-64
2022/07/04 02:48:43;;;;;;;4.38;1.58;;;;;;;14.66;62.68;100658.66;5114644;28;20056;-64
2022/07/04 02:51:10;;;;;;;3.08;1.30;;;;;;;14.65;62.95;100659.81;5109028;27;20055;-65
2022/07/04 02:53:37;;;;;;;6.47;2.40;;;;;;;14.59;63.23;100665.63;5114418;28;20054;-64
2022/07/04 02:56:05;;;;;;;2.60;1.50;;;;;;;14.53;63.45;100674.50;5115126;28;20048;-64
2022/07/04 02:58:32;;;;;;;4.05;1.67;;;;;;;14.51;63.35;100679.63;5114360;28;20054;-64
2022/07/04 03:01:01;;;;;;;2.85;1.60;;;;;;;14.55;63.34;100672.19;5112931;28;20052;-65
2022/07/04 03:03:28;;;;;;;4.43;1.60;;;;;;;14.53;63.34;100678.16;5114813;27;20058;-64
2022/07/04 03:05:56;;;;;;;3.67;1.98;;;;;;;14.53;63.47;100682.91;5114662;28;20818;-64
2022/07/04 03:08:23;;;;;;;4.20;1.73;;;;;;;14.53;63.93;100678.16;5114684;28;20054;-65
2022/07/04 03:10:51;;;;;;;2.88;1.30;;;;;;;14.53;63.66;100683.75;5128578;27;20055;-64
2022/07/04 03:13:19;;;;;;;4.07;1.90;;;;;;;14.53;63.64;100694.97;5134759;27;20051;-64
2022/07/04 03:15:47;;;;;;;3.50;1.58;;;;;;;14.50;64.24;100695.63;5134515;27;20043;-65
2022/07/04 03:18:15;;;;;;;5.30;2.10;;;;;;;14.48;64.41;100706.34;5134706;27;20392;-65
2022/07/04 03:20:43;;;;;;;3.25;1.67;;;;;;;14.51;64.42;100710.47;5128571;27;20051;-65
2022/07/04 03:23:10;;;;;;;5.15;2.70;;;;;;;14.52;64.43;100706.50;5114074;28;20048;-64
2022/07/04 03:25:37;;;;;;;4.50;2.90;;;;;;;14.44;64.52;100699.78;5114106;28;20059;-65
2022/07/04 03:28:05;;;;;;;7.50;3.60;;;;;;;14.44;64.71;100705.38;5113886;28;20052;-64
2022/07/04 03:30:32;;;;;;;6.60;4.07;;;;;;;14.41;64.84;100717.28;5114902;27;20055;-64
2022/07/04 03:33:00;;;;;;;6.20;4.22;;;;;;;14.47;64.91;100721.53;5133821;27;20055;-64
2022/07/04 03:35:29;;;;;;;7.15;4.50;;;;;;;14.51;64.95;100713.25;5134386;27;20054;-65
2022/07/04 03:37:56;;;;;;;8.93;4.32;;;;;;;14.55;64.54;100723.53;5133582;27;20055;-65
2022/07/04 03:40:24;;;;;;;6.13;3.72;;;;;;;14.58;64.57;100722.03;5134383;27;20054;-64
2022/07/04 03:42:51;;;;;;;8.52;3.90;;;;;;;14.61;64.67;100725.00;5133135;27;20058;-65
2022/07/04 03:45:18;;;;;;;7.07;4.13;;;;;;;14.58;64.70;100719.22;5134353;27;20054;-65
2022/07/04 03:47:46;;;;;;;6.78;3.30;;;;;;;14.63;64.95;100718.22;5133563;27;20047;-65
2022/07/04 03:50:13;;;;;;;6.13;3.80;;;;;;;14.68;64.63;100720.81;5125619;27;20054;-65
2022/07/04 03:52:42;;;;;;;6.60;3.20;;;;;;;14.73;64.78;100723.44;5133255;27;20054;-64
2022/07/04 03:55:10;;;;;;;5.72;3.47;;;;;;;14.79;64.62;100727.72;5134093;27;20398;-64
2022/07/04 03:57:37;;;;;;;8.45;4.00;;;;;;;14.79;64.88;100727.72;5133341;27;20043;-64
2022/07/04 04:00:07;;;;;;;5.13;2.92;;;;;;;14.87;64.96;100718.44;5132589;27;20051;-65
2022/07/04 04:02:35;;;;;;;5.20;2.65;;;;;;;14.94;64.47;100718.72;5133832;27;20054;-65
2022/07/04 04:07:48;;;;;;;6.00;3.15;;;;;;;15.04;64.52;100727.94;5139838;27;20058;-65
2022/07/04 04:10:16;;;;;;;4.43;3.15;;;;;;;15.07;64.43;100727.25;5132273;27;20059;-65
2022/07/04 04:12:43;;;;;;;5.45;2.80;;;;;;;15.12;63.83;100729.84;5132826;27;20403;-64
2022/07/04 04:15:10;;;;;;;4.70;2.75;;;;;;;15.16;63.90;100728.84;5133456;27;20054;-64
2022/07/04 04:17:38;;;;;;;5.15;2.70;;;;;;;15.27;63.49;100732.06;5132989;27;20120;-65
2022/07/04 04:20:08;;;;;;;5.38;2.97;;;;;;;15.32;63.75;100729.06;5132245;27;20055;-65
2022/07/04 04:22:36;;;;;;;12.73;3.67;;;;;;;15.42;63.70;100725.84;5133035;27;20051;-65
2022/07/04 04:25:05;;;;;;;4.47;3.03;;;;;;;15.49;63.33;100724.50;5133193;27;20476;-65
2022/07/04 04:27:32;;;;;;;;;;;;;;;15.47;63.50;100726.81;5133757;27;20044;-64
2022/07/04 04:30:00;;;;;;;6.85;3.00;;;;;;;15.48;63.73;100732.09;5132629;27;19926;-65
2022/07/04 04:32:27;;;;;;;6.03;3.22;;;;;;;15.53;63.50;100731.06;5131913;27;20059;-65
2022/07/04 04:34:54;;;;;;;5.95;3.15;;;;;;;15.58;63.90;100736.47;5132945;27;20072;-65
2022/07/04 04:37:21;;;;;;;5.40;2.90;;;;;;;15.68;63.75;100727.63;5132914;27;20091;-65
2022/07/04 04:39:49;;;;;;;5.53;2.78;;;;;;;15.74;63.22;100734.72;5132323;27;20047;-65
2022/07/04 04:42:18;;;;;;;5.70;3.05;;;;;;;15.83;63.59;100738.28;5130337;27;20455;-65
2022/07/04 04:44:46;;;;;;;4.75;2.50;;;;;;;15.89;63.71;100752.13;5132407;27;20395;-64
2022/07/04 04:47:13;;;;;;;4.45;2.67;;;;;;;15.95;63.61;100745.94;5132891;27;20074;-64
2022/07/04 04:49:40;;;;;;;5.68;2.53;;;;;;;16.04;63.39;100740.22;5123008;27;20399;-65
2022/07/04 04:52:09;;;;;;;5.53;2.95;;;;;;;16.13;62.83;100734.56;5115360;27;20054;-65
2022/07/04 04:54:36;;;;;;;4.68;2.75;;;;;;;16.16;62.45;100748.72;5132582;27;20074;-64
2022/07/04 04:57:04;;;;;;;6.53;3.00;;;;;;;16.24;62.18;100736.56;5131980;27;20066;-65
2022/07/04 04:59:33;;;;;;;5.25;2.75;;;;;;;16.23;62.16;100746.19;5132043;27;20055;-65
2022/07/04 05:02:01;;;;;;;6.13;3.22;;;;;;;16.24;62.29;100747.81;5130595;27;20077;-63
2022/07/04 05:04:28;;;;;;;5.57;3.03;;;;;;;16.27;62.05;100740.66;5123419;27;20047;-65
2022/07/04 05:06:56;;;;;;;5.47;3.28;;;;;;;16.32;61.94;100739.66;5124873;27;20044;-65
2022/07/04 05:09:23;;;;;;;6.38;3.22;;;;;;;16.34;62.07;100734.50;5119349;27;20055;-64
2022/07/04 05:11:50;;;;;;;6.20;3.47;;;;;;;16.39;61.99;100740.72;5125486;27;20051;-64
2022/07/04 05:14:18;;;;;;;6.50;3.15;;;;;;;16.44;62.05;100739.66;5119608;27;20059;-65
2022/07/04 05:16:46;;;;;;;6.53;3.33;;;;;;;16.49;62.04;100739.44;5117990;28;20050;-63
2022/07/04 05:19:14;;;;;;;7.80;3.33;;;;;;;16.34;63.01;100746.56;5126816;28;20055;-50
2022/07/04 05:21:41;;;;;;;7.55;3.13;;;;;;;16.00;64.88;100742.09;5124819;28;20485;-47
2022/07/04 05:24:11;;;;;;;8.13;3.47;;;;;;;16.13;64.89;100746.63;5121468;27;20051;-50
2022/07/04 05:26:38;;;;;;;;;;;;;;;16.20;64.96;100751.66;5123923;28;20074;-48
2022/07/04 05:29:05;;;;;;;8.38;3.50;;;;;;;16.36;64.17;100749.03;5124010;28;19978;-48
2022/07/04 05:31:32;;;;;;;6.68;3.38;;;;;;;16.15;65.24;100747.09;5121558;28;20059;-48
2022/07/04 05:34:01;;;;;;;5.03;3.45;;;;;;;16.19;65.21;100739.59;5120370;27;20062;-48
2022/07/04 05:36:29;;;;;;;7.20;3.47;;;;;;;16.54;63.93;100747.66;5121887;28;21424;-47
2022/07/04 05:39:00;;;;;;;6.40;2.95;;;;;;;16.51;64.32;100751.19;5117780;28;20050;-50
2022/07/04 05:41:27;;;;;;;7.53;3.53;;;;;;;16.68;64.07;100752.16;5126191;27;20054;-49
2022/07/04 05:43:54;;;;;;;8.98;3.05;;;;;;;16.69;63.79;100750.97;5131897;27;20055;-48
2022/07/04 05:46:22;;;;;;;4.32;3.13;;;;;;;16.86;63.16;100756.41;5132369;27;20055;-48
2022/07/04 05:48:49;;;;;;;4.35;2.95;;;;;;;17.06;63.06;100751.84;5127594;27;20047;-50
2022/07/04 05:51:17;;;;;;;6.47;2.97;;;;;;;17.26;62.59;100761.38;5118791;27;20471;-49
2022/07/04 05:53:45;;;;;;;5.73;3.50;;;;;;;17.38;61.84;100752.88;5090860;27;20045;-51
2022/07/04 05:56:12;;;;;;;5.85;3.95;;;;;;;17.09;62.46;100759.56;5059855;28;20044;-51
2022/07/04 05:58:40;;;;;;;6.15;3.15;;;;;;;17.37;62.04;100756.88;5060126;28;20045;-48
2022/07/04 06:01:08;;;;;;;8.65;3.88;;;;;;;17.49;61.68;100755.22;5054532;28;20052;-47
2022/07/04 06:03:36;;;;;;;7.85;3.72;;;;;;;17.48;61.72;100759.22;5070600;28;20421;-48
2022/07/04 06:06:04;;;;;;;6.47;3.95;;;;;;;17.68;61.28;100752.63;5061594;28;20486;-47
2022/07/04 06:08:33;;;;;;;10.30;3.92;;;;;;;17.61;61.34;100752.38;5069895;28;20045;-47
2022/07/04 06:11:01;;;;;;;7.85;3.50;;;;;;;17.68;61.46;100754.59;5064386;28;20060;-49
2022/07/04 06:13:28;;;;;;;7.82;3.63;;;;;;;17.93;60.49;100752.53;5054570;28;20060;-49
2022/07/04 06:15:56;;;;;;;8.20;3.17;;;;;;;18.08;60.09;100751.81;5054944;28;20053;-47
2022/07/04 06:18:23;;;;;;;5.80;3.50;;;;;;;18.13;59.53;100751.53;5054694;28;20049;-49
2022/07/04 06:20:51;;;;;;;5.63;3.58;;;;;;;17.84;60.48;100753.50;5068691;28;20056;-48
2022/07/04 06:23:18;;;;;;;7.18;3.92;;;;;;;17.32;61.66;100750.66;5074738;28;20067;-47
2022/07/04 06:25:47;;;;;;;5.63;3.50;;;;;;;17.40;61.61;100747.72;5058053;28;20052;-50
2022/07/04 06:28:15;;;;;;;6.85;3.42;;;;;;;17.75;60.65;100752.81;5065004;28;20040;-47
2022/07/04 06:30:42;;;;;;;5.93;3.10;;;;;;;18.01;59.84;100754.41;5070355;28;20056;-62
2022/07/04 06:33:10;;;;;;;6.72;3.40;;;;;;;18.25;59.22;100743.03;5066688;28;20061;-65
2022/07/04 06:35:45;;;;;;;6.57;2.90;;;;;;;18.40;58.46;100746.25;5069010;28;20048;-64
2022/07/04 06:38:14;;;;;;;4.85;2.50;;;;;;;18.49;58.44;100752.53;5065308;28;20052;-64
2022/07/04 06:40:42;;;;;;;5.75;2.40;;;;;;;18.61;57.38;100749.63;5064314;28;20055;-64
2022/07/04 06:43:11;;;;;;;6.05;2.63;;;;;;;18.62;56.69;100742.78;5063383;28;20508;-64
2022/07/04 06:45:38;;;;;;;9.98;2.25;;;;;;;18.66;56.74;100742.91;5063037;28;20056;-64
2022/07/04 06:48:07;;;;;;;3.95;2.20;;;;;;;18.64;56.38;100742.44;5060898;28;20082;-64
2022/07/04 06:50:35;;;;;;;4.25;2.22;;;;;;;18.44;56.52;100742.34;5063281;28;20057;-63
2022/07/04 06:53:03;;;;;;;6.07;2.17;;;;;;;18.65;56.20;100733.63;5061865;28;20052;-62
2022/07/04 06:55:37;;;;;;;4.38;2.30;;;;;;;18.81;55.29;100742.09;5058251;28;20045;-62
2022/07/04 06:58:07;;;;;;;5.75;1.92;;;;;;;18.97;54.47;100738.47;5063889;28;20052;-64
2022/07/04 07:00:36;;;;;;;4.65;2.28;;;;;;;19.09;53.97;100731.91;5059396;28;20053;-63
2022/07/04 07:03:04;;;;;;;4.78;1.77;;;;;;;19.21;53.61;100737.44;5059079;28;20061;-62
2022/07/04 07:05:32;;;;;;;3.53;1.85;;;;;;;19.32;54.09;100737.69;5059494;28;20385;-63
2022/07/04 07:07:59;;;;;;;2.83;2.03;;;;;;;19.43;52.85;100738.78;5064894;28;20060;-62
2022/07/04 07:10:27;;;;;;;4.05;2.05;;;;;;;19.54;53.27;100731.34;5062212;28;20063;-64
2022/07/04 07:12:54;;;;;;;3.78;2.40;;;;;;;19.64;53.30;100733.59;5065436;28;20119;-64
2022/07/04 07:15:21;;;;;;;4.00;1.90;;;;;;;19.68;52.74;100725.22;5067176;28;20528;-64
2022/07/04 07:17:50;;;;;;;3.90;1.98;;;;;;;19.66;52.11;100719.91;5064430;28;20070;-64
2022/07/04 07:20:17;;;;;;;6.07;2.07;;;;;;;19.84;51.34;100731.66;5062370;28;20048;-64
2022/07/04 07:22:44;;;;;;;5.28;1.60;;;;;;;19.91;50.69;100719.66;5060983;28;20487;-64
2022/07/04 07:25:13;;;;;;;3.53;1.45;;;;;;;20.07;50.57;100728.91;5058137;28;20055;-64
2022/07/04 07:27:41;;;;;;;3.08;1.40;;;;;;;20.11;50.09;100730.97;5067811;28;20060;-64
2022/07/04 07:30:10;;;;;;;4.22;1.38;;;;;;;20.20;49.46;100732.38;5064136;28;20049;-64
2022/07/04 07:32:37;;;;;;;4.45;1.63;;;;;;;20.33;48.92;100735.84;5058491;28;20087;-64
2022/07/04 07:35:07;;;;;;;2.90;1.33;;;;;;;20.42;48.81;100732.78;5062139;28;20053;-63
2022/07/04 07:37:34;;;;;;;4.30;1.60;;;;;;;20.41;48.30;100734.81;5061846;28;20060;-63
2022/07/04 07:40:03;;;;;;;2.58;1.45;;;;;;;20.29;47.33;100732.13;5067460;28;20134;-63
2022/07/04 07:42:30;;;;;;;4.55;1.40;;;;;;;20.40;47.39;100732.34;5062843;28;20071;-64
2022/07/04 07:44:57;;;;;;;1.80;1.02;;;;;;;20.56;46.20;100724.56;5063147;28;20473;-64
2022/07/04 07:47:24;;;;;;;3.40;1.27;;;;;;;20.68;46.19;100724.41;5062566;28;20118;-64
2022/07/04 07:49:52;;;;;;;4.05;1.70;;;;;;;20.81;46.39;100732.69;5072284;28;20472;-64
2022/07/04 07:52:21;;;;;;;3.17;1.55;;;;;;;20.91;46.27;100729.22;5056385;28;20417;-64
2022/07/04 07:54:48;;;;;;;4.90;2.35;;;;;;;21.04;46.29;100718.50;5069831;28;20075;-65
2022/07/04 07:57:16;;;;;;;3.67;1.67;;;;;;;21.41;46.41;100720.69;5071631;28;20055;-65
2022/07/04 07:59:43;;;;;;;3.35;1.30;;;;;;;22.17;44.71;100717.66;5065498;28;20044;-64
2022/07/04 08:02:10;;;;;;;2.72;1.25;;;;;;;23.39;42.23;100718.81;5060278;28;20056;-64
2022/07/04 08:04:38;;;;;;;2.58;1.30;;;;;;;24.25;39.12;100713.53;5066867;28;20468;-64
2022/07/04 08:07:08;;;;;;;1.73;1.10;;;;;;;25.20;36.84;100718.09;5063458;28;20052;-64
2022/07/04 08:09:37;;;;;;;4.13;1.80;;;;;;;26.14;35.35;100716.63;5058950;28;20045;-64
2022/07/04 08:12:06;;;;;;;2.80;1.55;;;;;;;26.96;33.59;100728.78;5060741;28;20044;-64
2022/07/04 08:14:35;;;;;;;1.92;1.10;;;;;;;27.58;31.40;100713.47;5067864;28;20405;-64
2022/07/04 08:17:05;;;;;;;2.42;1.27;;;;;;;28.23;31.08;100715.56;5056681;28;20053;-63
2022/07/04 08:19:32;;;;;;;3.00;1.30;;;;;;;29.09;29.74;100705.66;5070258;28;20496;-65
2022/07/04 08:22:00;;;;;;;2.65;1.08;;;;;;;30.12;27.78;100710.63;5067376;28;20441;-64
2022/07/04 08:24:27;;;;;;;2.08;0.85;;;;;;;31.02;26.22;100706.47;5065182;28;20049;-65
2022/07/04 08:26:56;;;;;;;3.85;1.10;;;;;;;31.80;25.57;100701.91;5064656;28;20049;-64
2022/07/04 08:29:23;;;;;;;2.72;1.20;;;;;;;32.64;24.69;100704.72;5069998;28;20060;-63
2022/07/04 08:31:51;;;;;;;3.97;1.25;;;;;;;33.37;24.21;100716.28;5062096;28;20567;-65
2022/07/04 08:34:18;;;;;;;3.35;1.10;;;;;;;34.23;22.50;100710.22;5059859;28;20060;-65
2022/07/04 08:36:45;;;;;;;3.20;1.30;;;;;;;34.91;21.78;100713.22;5062806;28;20059;-65
2022/07/04 08:39:12;;;;;;;2.15;0.98;;;;;;;35.25;21.07;100708.50;5069856;28;20056;-65
2022/07/04 08:41:41;;;;;;;2.40;1.23;;;;;;;36.09;20.29;100703.47;5069656;28;20055;-65
2022/07/04 08:44:11;;;;;;;2.75;1.17;;;;;;;36.64;19.40;100708.31;5059249;28;20048;-65
2022/07/04 08:46:40;;;;;;;3.25;1.23;;;;;;;36.05;19.62;100714.44;5068470;28;20075;-65
2022/07/04 08:49:12;;;;;;;3.10;1.23;;;;;;;36.98;18.96;100704.06;5063512;28;20060;-65
2022/07/04 08:51:47;;;;;;;2.03;0.90;;;;;;;37.64;18.30;100697.34;5061788;28;20138;-64
2022/07/04 08:59:49;;;;;;;2.53;1.20;;;;;;;39.15;17.42;100688.75;5066291;28;20456;-65
2022/07/04 09:02:19;;;;;;;2.67;1.10;;;;;;;39.21;17.07;100691.72;5065463;28;20083;-65
2022/07/04 09:04:47;;;;;;;2.47;1.20;;;;;;;39.48;16.60;100681.75;5069028;28;20044;-64
2022/07/04 09:07:15;;;;;;;2.75;1.20;;;;;;;40.31;16.11;100683.94;5065929;28;20049;-64
2022/07/04 09:09:43;;;;;;;3.28;1.55;;;;;;;40.66;15.57;100685.78;5064395;28;20053;-65
2022/07/04 09:12:11;;;;;;;2.42;1.40;;;;;;;40.95;16.01;100689.69;5068740;28;20052;-64
2022/07/04 09:14:39;;;;;;;3.15;1.35;;;;;;;41.35;15.28;100687.75;5064297;28;20052;-64
2022/07/04 09:17:07;;;;;;;;;;;;;;;41.48;15.08;100691.03;5065501;28;20052;-65
2022/07/04 09:19:34;;;;;;;3.60;1.27;;;;;;;41.86;14.82;100682.88;5060662;28;19940;-65
2022/07/04 09:22:10;;;;;;;2.33;1.15;;;;;;;42.23;13.93;100684.78;5067108;28;20052;-64
2022/07/04 09:24:49;;;;;;;3.72;1.20;;;;;;;41.61;14.27;100678.84;5068421;28;20075;-64
2022/07/04 09:27:33;;;;;;;3.33;1.35;;;;;;;41.44;14.49;100684.63;5070580;28;20049;-64
2022/07/04 09:30:01;;;;;;;2.45;1.27;;;;;;;41.37;14.72;100682.19;5069302;28;20045;-63
2022/07/04 09:32:38;;;;;;;3.80;1.20;;;;;;;40.80;14.98;100677.41;5072487;28;20355;-64
2022/07/04 09:35:07;;;;;;;2.50;1.20;;;;;;;41.73;13.96;100685.53;5067585;28;20492;-63
2022/07/04 09:37:40;;;;;;;3.83;1.13;;;;;;;42.37;13.98;100686.63;5069204;28;20049;-64
2022/07/04 09:40:10;;;;;;;1.90;1.08;;;;;;;43.12;13.16;100688.13;5070146;28;20048;-64
2022/07/04 09:42:38;;;;;;;1.98;1.00;;;;;;;43.43;12.46;100681.09;5069585;28;20049;-63
2022/07/04 09:45:08;;;;;;;2.97;1.20;;;;;;;44.51;12.17;100690.72;5063514;28;20144;-63
2022/07/04 09:47:38;;;;;;;1.83;1.00;;;;;;;44.65;11.65;100679.09;5057340;28;20420;-64
2022/07/04 09:50:07;;;;;;;2.22;0.90;;;;;;;45.64;11.33;100679.81;5062248;28;20044;-64
2022/07/04 09:52:49;;;;;;;2.55;0.90;;;;;;;45.89;10.61;100684.22;5073334;28;20048;-63
2022/07/04 09:55:25;;;;;;;1.98;1.13;;;;;;;45.56;10.75;100680.41;5061580;28;20048;-63
2022/07/04 09:57:53;;;;;;;1.60;1.00;;;;;;;45.64;11.20;100676.88;5066070;28;20057;-64
2022/07/04 10:00:23;;;;;;;3.63;1.20;;;;;;;46.06;11.17;100680.25;5070630;28;20052;-64
2022/07/04 10:02:52;;;;;;;1.67;1.10;;;;;;;46.30;10.67;100674.16;5061053;28;20060;-64
2022/07/04 10:05:26;;;;;;;2.92;1.50;;;;;;;47.06;10.34;100675.97;5072553;28;20400;-64
2022/07/04 10:07:55;;;;;;;2.45;1.20;;;;;;;47.06;9.86;100664.97;5066438;28;20097;-64
2022/07/04 10:10:28;;;;;;;2.67;1.13;;;;;;;47.49;9.33;100669.69;5068936;28;20064;-64
2022/07/04 10:12:57;;;;;;;1.77;1.02;;;;;;;46.71;10.16;100664.06;5061635;28;20489;-63
2022/07/04 10:15:25;;;;;;;1.58;0.98;;;;;;;46.96;10.05;100670.56;5067297;28;20404;-63
2022/07/04 10:17:53;;;;;;;;;;;;;;;47.67;9.33;100662.06;5072090;28;20052;-63
2022/07/04 10:20:21;;;;;;;2.05;1.20;;;;;;;47.84;8.77;100658.69;5073916;28;20258;-64
2022/07/04 10:22:49;;;;;;;1.27;0.60;;;;;;;47.00;9.72;100661.38;5074311;28;20496;-64
2022/07/04 10:25:16;;;;;;;1.98;1.05;;;;;;;44.64;11.32;100665.75;5065171;28;20049;-63
2022/07/04 10:27:44;;;;;;;2.83;1.30;;;;;;;45.33;11.04;100668.16;5066947;28;20064;-63
2022/07/04 10:30:16;;;;;;;1.83;1.00;;;;;;;45.95;10.80;100658.44;5061747;28;20064;-62
2022/07/04 10:32:46;;;;;;;2.55;1.20;;;;;;;46.06;10.42;100665.53;5064156;28;20060;-63
2022/07/04 10:35:16;;;;;;;1.85;1.10;;;;;;;46.86;9.53;100656.84;5069864;28;20420;-63
2022/07/04 10:38:00;;;;;;;3.10;1.10;;;;;;;46.84;9.90;100653.66;5069330;28;20481;-63
2022/07/04 10:40:42;;;;;;;1.67;1.05;;;;;;;47.32;9.48;100654.53;5072293;28;20049;-63
2022/07/04 10:44:00;;;;;;;2.75;1.13;;;;;;;47.20;9.31;100656.13;5071541;28;20056;-63
2022/07/04 10:46:32;;;;;;;2.90;1.20;;;;;;;47.08;9.66;100650.44;5069296;28;20044;-63
2022/07/04 10:49:01;;;;;;;2.05;1.25;;;;;;;46.49;9.66;100646.81;5076086;28;20044;-63
2022/07/04 10:51:42;;;;;;;1.58;1.05;;;;;;;47.47;9.55;100639.94;5068712;28;20048;-63
2022/07/04 10:54:12;;;;;;;4.53;1.30;;;;;;;47.85;9.59;100633.69;5069815;28;20053;-63
2022/07/04 10:56:44;;;;;;;2.28;1.38;;;;;;;47.83;9.83;100623.81;5065304;28;20052;-63
2022/07/04 10:59:14;;;;;;;3.78;1.60;;;;;;;46.04;10.34;100635.84;5064259;28;20409;-63
2022/07/04 11:01:50;;;;;;;1.60;1.27;;;;;;;46.81;9.66;100625.31;5070667;28;20116;-63
2022/07/04 11:04:45;;;;;;;3.00;1.35;;;;;;;46.09;9.81;100631.97;5062992;28;20048;-63
2022/07/04 11:07:14;;;;;;;2.45;1.75;;;;;;;47.45;9.62;100636.78;5064637;28;20056;-63
2022/07/04 11:09:42;;;;;;;2.50;1.33;;;;;;;47.16;9.51;100633.66;5064897;28;20071;-63
2022/07/04 11:12:12;;;;;;;1.55;1.20;;;;;;;47.42;9.64;100632.03;5060824;28;20496;-63
2022/07/04 11:14:42;;;;;;;2.00;0.98;;;;;;;47.65;9.47;100620.50;5061715;28;20071;-63
2022/07/04 11:17:12;;;;;;;2.00;0.98;;;;;;;46.42;10.42;100626.88;5068310;28;20048;-63
2022/07/04 11:19:42;;;;;;;2.88;1.00;;;;;;;45.29;10.61;100632.38;5063095;28;20409;-63
2022/07/04 11:22:10;;;;;;;1.70;1.10;;;;;;;45.84;10.76;100635.03;5061983;28;20051;-63
2022/07/04 11:24:40;;;;;;;1.50;1.00;;;;;;;45.22;10.82;100627.13;5066424;28;20118;-62
2022/07/04 11:27:09;;;;;;;2.15;0.77;;;;;;;43.33;12.11;100629.94;5059928;28;20056;-63
2022/07/04 11:29:36;;;;;;;1.67;0.80;;;;;;;42.25;12.17;100620.63;5059593;28;20048;-64
2022/07/04 11:32:07;;;;;;;1.83;1.15;;;;;;;41.72;13.19;100626.22;5065001;28;20060;-63
2022/07/04 11:34:34;;;;;;;1.80;1.20;;;;;;;41.88;12.94;100623.84;5061883;28;20049;-63
2022/07/04 11:37:04;;;;;;;2.67;1.23;;;;;;;42.06;12.31;100632.09;5063716;28;20055;-62
2022/07/04 11:39:31;;;;;;;2.30;1.00;;;;;;;42.20;12.37;100624.38;5066017;28;20404;-63
2022/07/04 11:45:04;;;;;;;2.20;1.00;;;;;;;43.76;11.84;100617.66;5068544;28;20075;-63
2022/07/04 11:47:36;;;;;;;2.00;1.13;;;;;;;44.47;11.50;100610.13;5068581;28;20049;-63
2022/07/04 11:50:05;;;;;;;1.75;1.05;;;;;;;44.99;10.48;100614.88;5062201;28;20053;-62